Time;durP1;ratioP1;P1;durP2;ratioP2;P2;SDS_P1;SDS_P2;PMS_P1;PMS_P2;Temp;Humidity;BMP_temperature;BMP_pressure;BME280_temperature;BME280_humidity;BME280_pressure;Samples;Min_cycle;Max_cycle;Signal;HPM_P1;HPM_P2
2023/03/12 00:01:22;;;;;;;3.80;2.33;;;;;;;;;;4960969;28;20034;-80
2023/03/12 00:03:49;;;;;;;6.03;3.20;;;;;;;;;;4970356;28;20046;-81
2023/03/12 00:06:15;;;;;;;15.45;6.18;;;;;;;;;;4997519;28;20019;-80
2023/03/12 00:08:40;;;;;;;8.07;4.38;;;;;;;;;;4990742;28;20617;-80
2023/03/12 00:11:12;;;;;;;3.10;2.42;;;;;;;;;;4980239;28;20037;-81
2023/03/12 00:13:38;;;;;;;1.63;1.52;;;;;;;;;;4997788;28;20049;-81
2023/03/12 00:16:06;;;;;;;1.77;1.67;;;;;;;;;;4998101;28;20042;-80
2023/03/12 00:18:31;;;;;;;3.45;2.08;;;;;;;;;;4969849;28;20070;-82
2023/03/12 00:20:56;;;;;;;3.70;2.00;;;;;;;;;;4984452;28;20039;-80
2023/03/12 00:23:22;;;;;;;3.05;2.22;;;;;;;;;;4960227;28;20027;-78
2023/03/12 00:25:47;;;;;;;4.57;2.17;;;;;;;;;;4982236;28;20027;-81
2023/03/12 00:28:12;;;;;;;2.33;1.65;;;;;;;;;;4982384;28;20030;-81
2023/03/12 00:30:39;;;;;;;4.35;2.83;;;;;;;;;;4958660;29;20038;-80
2023/03/12 00:33:05;;;;;;;8.57;2.17;;;;;;;;;;4972926;28;20023;-78
2023/03/12 00:35:31;;;;;;;5.32;2.53;;;;;;;;;;4963184;28;20057;-80
2023/03/12 00:37:56;;;;;;;11.40;2.80;;;;;;;;;;4943201;28;1090531;-79
2023/03/12 00:40:22;;;;;;;6.03;2.45;;;;;;;;;;4988866;28;20027;-81
2023/03/12 00:42:47;;;;;;;4.00;2.22;;;;;;;;;;4988291;28;20026;-81
2023/03/12 00:45:12;;;;;;;4.75;2.88;;;;;;;;;;4981249;28;20469;-81
2023/03/12 00:47:38;;;;;;;2.78;2.17;;;;;;;;;;4981188;28;20030;-80
2023/03/12 00:50:04;;;;;;;14.73;2.80;;;;;;;;;;4988731;28;20030;-78
2023/03/12 00:52:31;;;;;;;2.45;2.20;;;;;;;;;;4953189;29;20027;-80
2023/03/12 00:54:57;;;;;;;2.85;2.28;;;;;;;;;;4968163;28;20063;-80
2023/03/12 00:57:23;;;;;;;3.13;2.17;;;;;;;;;;4980442;28;20042;-80
2023/03/12 00:59:48;;;;;;;4.35;2.33;;;;;;;;;;4979453;28;20053;-77
2023/03/12 01:02:14;;;;;;;2.45;1.77;;;;;;;;;;5012181;28;20030;-78
2023/03/12 01:04:39;;;;;;;2.08;1.90;;;;;;;;;;5007439;28;20038;-79
2023/03/12 01:07:05;;;;;;;5.57;2.67;;;;;;;;;;4971522;28;20026;-80
2023/03/12 01:09:30;;;;;;;2.50;1.88;;;;;;;;;;4989543;28;20127;-77
2023/03/12 01:11:56;;;;;;;3.75;1.95;;;;;;;;;;4980831;28;20077;-79
2023/03/12 01:14:23;;;;;;;4.50;3.25;;;;;;;;;;4997338;28;20015;-78
2023/03/12 01:16:48;;;;;;;5.47;2.38;;;;;;;;;;4973982;28;20043;-81
2023/03/12 01:19:14;;;;;;;6.65;3.33;;;;;;;;;;4992322;28;20038;-81
2023/03/12 01:21:39;;;;;;;2.65;2.42;;;;;;;;;;4979042;28;20088;-81
2023/03/12 01:24:05;;;;;;;5.05;2.95;;;;;;;;;;4984096;28;20030;-81
2023/03/12 01:26:30;;;;;;;7.50;2.85;;;;;;;;;;4981542;28;20081;-81
2023/03/12 01:28:56;;;;;;;5.00;2.55;;;;;;;;;;4963674;28;20030;-81
2023/03/12 01:31:21;;;;;;;4.10;2.90;;;;;;;;;;4965110;28;20026;-81
2023/03/12 01:33:49;;;;;;;5.78;3.15;;;;;;;;;;4990053;28;20093;-81
2023/03/12 01:36:18;;;;;;;2.72;2.30;;;;;;;;;;4984634;28;20027;-79
2023/03/12 01:38:43;;;;;;;2.53;2.33;;;;;;;;;;4968709;28;20097;-80
2023/03/12 01:41:09;;;;;;;3.75;2.78;;;;;;;;;;4994117;28;20074;-81
2023/03/12 01:43:37;;;;;;;4.43;2.30;;;;;;;;;;4964802;28;20026;-79
2023/03/12 01:46:24;;;;;;;2.45;2.25;;;;;;;;;;4964043;28;20026;-79
2023/03/12 01:48:57;;;;;;;3.92;2.35;;;;;;;;;;4980795;28;20053;-81
2023/03/12 01:51:25;;;;;;;2.55;2.08;;;;;;;;;;4993150;28;20088;-81
2023/03/12 01:53:55;;;;;;;2.88;2.42;;;;;;;;;;4976679;28;20030;-80
2023/03/12 01:56:21;;;;;;;6.80;3.03;;;;;;;;;;4962793;28;20027;-81
2023/03/12 01:58:51;;;;;;;3.90;3.13;;;;;;;;;;4974392;28;20117;-81
2023/03/12 02:01:18;;;;;;;7.93;3.65;;;;;;;;;;4962913;28;20027;-82
2023/03/12 02:03:46;;;;;;;8.35;2.58;;;;;;;;;;4994697;28;20034;-78
2023/03/12 02:06:13;;;;;;;4.45;2.33;;;;;;;;;;4960214;28;20026;-82
2023/03/12 02:08:42;;;;;;;7.22;3.50;;;;;;;;;;4960596;28;20023;-82
2023/03/12 02:11:08;;;;;;;7.75;2.30;;;;;;;;;;4978224;28;20109;-78
2023/03/12 02:13:34;;;;;;;8.98;2.67;;;;;;;;;;4954668;28;20129;-78
2023/03/12 02:15:59;;;;;;;5.07;2.78;;;;;;;;;;4956322;28;20065;-80
2023/03/12 02:18:25;;;;;;;7.85;2.78;;;;;;;;;;4974061;28;20118;-79
2023/03/12 02:21:07;;;;;;;6.00;3.00;;;;;;;;;;4975328;28;20023;-80
2023/03/12 02:23:56;;;;;;;3.00;2.10;;;;;;;;;;4973227;28;20022;-78
2023/03/12 02:26:23;;;;;;;5.80;2.30;;;;;;;;;;4971068;28;20021;-79
2023/03/12 02:28:49;;;;;;;3.17;2.55;;;;;;;;;;4975710;28;20086;-80
2023/03/12 02:31:19;;;;;;;5.90;2.55;;;;;;;;;;4976749;28;20027;-79
2023/03/12 02:33:44;;;;;;;5.45;2.72;;;;;;;;;;4953119;28;20031;-78
2023/03/12 02:36:10;;;;;;;6.07;2.70;;;;;;;;;;4959983;28;20035;-80
2023/03/12 02:38:48;;;;;;;9.18;3.42;;;;;;;;;;4975953;28;20041;-81
2023/03/12 02:41:25;;;;;;;5.93;3.30;;;;;;;;;;4968079;28;20042;-79
2023/03/12 02:44:00;;;;;;;4.57;2.72;;;;;;;;;;4975828;28;20030;-77
2023/03/12 02:46:28;;;;;;;3.15;2.03;;;;;;;;;;4960962;28;20031;-79
2023/03/12 02:48:54;;;;;;;6.03;3.00;;;;;;;;;;4974586;28;20026;-79
2023/03/12 02:51:20;;;;;;;3.08;2.30;;;;;;;;;;4976866;28;20018;-79
2023/03/12 02:53:45;;;;;;;6.68;2.83;;;;;;;;;;4979192;28;20034;-77
2023/03/12 02:56:10;;;;;;;10.57;3.55;;;;;;;;;;4943051;28;20027;-80
2023/03/12 02:58:36;;;;;;;8.10;3.08;;;;;;;;;;4972696;28;20026;-80
2023/03/12 03:01:02;;;;;;;4.88;2.65;;;;;;;;;;4975957;28;20149;-80
2023/03/12 03:03:27;;;;;;;4.45;3.08;;;;;;;;;;4973078;28;20030;-79
2023/03/12 03:05:52;;;;;;;5.57;2.80;;;;;;;;;;4964783;28;20030;-79
2023/03/12 03:08:18;;;;;;;8.50;2.88;;;;;;;;;;4975917;28;20496;-80
2023/03/12 03:10:43;;;;;;;8.25;3.25;;;;;;;;;;4968827;28;20034;-79
2023/03/12 03:13:08;;;;;;;5.82;2.67;;;;;;;;;;4974696;28;20030;-79
2023/03/12 03:15:34;;;;;;;2.53;2.25;;;;;;;;;;4974030;28;20038;-80
2023/03/12 03:18:02;;;;;;;8.55;3.92;;;;;;;;;;4970285;28;20363;-80
2023/03/12 03:20:28;;;;;;;3.03;2.38;;;;;;;;;;4975703;28;20069;-79
2023/03/12 03:22:53;;;;;;;2.97;2.50;;;;;;;;;;4974645;28;20393;-79
2023/03/12 03:25:21;;;;;;;8.05;4.35;;;;;;;;;;4974980;28;20042;-79
2023/03/12 03:27:47;;;;;;;5.93;2.80;;;;;;;;;;4977949;28;20147;-78
2023/03/12 03:30:13;;;;;;;7.47;3.58;;;;;;;;;;4981928;28;20030;-78
2023/03/12 03:32:38;;;;;;;4.57;3.15;;;;;;;;;;4979524;28;20034;-80
2023/03/12 03:35:04;;;;;;;5.53;2.53;;;;;;;;;;4957374;28;20026;-80
2023/03/12 03:37:29;;;;;;;5.88;2.50;;;;;;;;;;4974766;28;20053;-82
2023/03/12 03:39:54;;;;;;;6.47;2.80;;;;;;;;;;4973178;28;20058;-80
2023/03/12 03:42:20;;;;;;;5.50;3.35;;;;;;;;;;4983410;28;20493;-79
2023/03/12 03:44:45;;;;;;;4.07;3.05;;;;;;;;;;4980885;28;20056;-80
2023/03/12 03:47:11;;;;;;;9.52;3.08;;;;;;;;;;4980228;28;20022;-81
2023/03/12 03:49:36;;;;;;;6.75;3.72;;;;;;;;;;4979707;28;20480;-81
2023/03/12 03:52:01;;;;;;;5.07;3.00;;;;;;;;;;4989264;28;20038;-81
2023/03/12 03:54:28;;;;;;;6.43;2.78;;;;;;;;;;4989652;28;20027;-79
2023/03/12 03:56:53;;;;;;;5.13;3.03;;;;;;;;;;4981996;28;20030;-81
2023/03/12 03:59:19;;;;;;;10.30;2.58;;;;;;;;;;4967538;28;20377;-79
2023/03/12 04:01:44;;;;;;;5.30;3.17;;;;;;;;;;4971976;28;20031;-81
2023/03/12 04:04:09;;;;;;;5.35;3.72;;;;;;;;;;4976792;28;20030;-78
2023/03/12 04:06:35;;;;;;;10.73;4.18;;;;;;;;;;4961055;28;20120;-80
2023/03/12 04:09:00;;;;;;;6.32;3.38;;;;;;;;;;4960437;28;20030;-80
2023/03/12 04:11:26;;;;;;;4.25;2.60;;;;;;;;;;4980019;28;20138;-79
2023/03/12 04:13:51;;;;;;;5.55;3.15;;;;;;;;;;4992067;28;20061;-79
2023/03/12 04:16:17;;;;;;;4.22;3.35;;;;;;;;;;4997500;28;20038;-80
2023/03/12 04:18:43;;;;;;;5.43;3.33;;;;;;;;;;4975870;28;20088;-79
2023/03/12 04:21:10;;;;;;;9.27;3.30;;;;;;;;;;4977152;28;20027;-80
2023/03/12 04:23:36;;;;;;;7.70;2.95;;;;;;;;;;4977487;28;20034;-79
2023/03/12 04:26:02;;;;;;;6.38;2.85;;;;;;;;;;4961595;28;20042;-81
2023/03/12 04:28:27;;;;;;;2.83;2.50;;;;;;;;;;4979076;28;20031;-80
2023/03/12 04:30:58;;;;;;;3.22;2.75;;;;;;;;;;4978115;28;20394;-81
2023/03/12 04:33:28;;;;;;;6.97;2.95;;;;;;;;;;4961753;28;20031;-80
2023/03/12 04:35:53;;;;;;;3.85;3.13;;;;;;;;;;4978872;28;20034;-79
2023/03/12 04:38:20;;;;;;;5.38;2.45;;;;;;;;;;4979442;28;20030;-78
2023/03/12 04:40:45;;;;;;;7.93;2.97;;;;;;;;;;4989178;28;20477;-79
2023/03/12 04:43:11;;;;;;;3.30;2.25;;;;;;;;;;4984531;28;20061;-80
2023/03/12 04:45:38;;;;;;;4.38;2.70;;;;;;;;;;4996771;28;20034;-80
2023/03/12 04:48:04;;;;;;;3.97;2.78;;;;;;;;;;4978425;28;20026;-79
2023/03/12 04:50:29;;;;;;;4.95;2.80;;;;;;;;;;4975532;28;20408;-79
2023/03/12 04:52:54;;;;;;;6.35;3.38;;;;;;;;;;4979555;28;20023;-80
2023/03/12 04:55:20;;;;;;;5.53;2.60;;;;;;;;;;4979012;28;20580;-79
2023/03/12 04:57:45;;;;;;;4.45;2.67;;;;;;;;;;4974132;28;20484;-80
2023/03/12 05:00:12;;;;;;;3.83;2.80;;;;;;;;;;4976708;28;20519;-81
2023/03/12 05:02:39;;;;;;;3.63;2.55;;;;;;;;;;4965190;28;20057;-80
2023/03/12 05:05:05;;;;;;;6.88;3.42;;;;;;;;;;4969010;28;20496;-80
2023/03/12 05:07:30;;;;;;;6.88;2.80;;;;;;;;;;4975582;28;20027;-80
2023/03/12 05:09:56;;;;;;;4.10;2.80;;;;;;;;;;4979679;28;20118;-79
2023/03/12 05:12:21;;;;;;;5.85;2.92;;;;;;;;;;4981839;28;20033;-80
2023/03/12 05:14:46;;;;;;;6.40;2.92;;;;;;;;;;4971934;28;20031;-80
2023/03/12 05:17:12;;;;;;;8.07;3.17;;;;;;;;;;4977075;28;20034;-79
2023/03/12 05:19:37;;;;;;;7.05;2.78;;;;;;;;;;4964868;28;20485;-81
2023/03/12 05:22:02;;;;;;;6.80;3.38;;;;;;;;;;4984757;28;20019;-80
2023/03/12 05:24:28;;;;;;;4.35;2.22;;;;;;;;;;4970762;28;20043;-81
2023/03/12 05:26:53;;;;;;;3.65;2.15;;;;;;;;;;4977222;28;20113;-80
2023/03/12 05:29:18;;;;;;;8.52;2.55;;;;;;;;;;4977898;28;20027;-80
2023/03/12 05:31:44;;;;;;;4.03;2.47;;;;;;;;;;4959641;28;20114;-82
2023/03/12 05:34:13;;;;;;;2.78;2.10;;;;;;;;;;4982112;28;20117;-80
2023/03/12 05:36:38;;;;;;;2.33;2.13;;;;;;;;;;4977685;28;20112;-80
2023/03/12 05:39:04;;;;;;;4.97;3.13;;;;;;;;;;4981290;28;20054;-79
2023/03/12 05:41:30;;;;;;;4.97;2.63;;;;;;;;;;4995984;28;20090;-79
2023/03/12 05:43:56;;;;;;;8.07;3.08;;;;;;;;;;5186231;23;20017;-80
2023/03/12 05:46:23;;;;;;;6.90;2.80;;;;;;;;;;4951495;28;20073;-80
2023/03/12 05:48:49;;;;;;;4.57;2.28;;;;;;;;;;4949981;28;20040;-81
2023/03/12 05:51:15;;;;;;;4.15;2.63;;;;;;;;;;4954361;28;20035;-80
2023/03/12 05:53:40;;;;;;;11.07;4.40;;;;;;;;;;4955473;28;20405;-80
2023/03/12 05:56:17;;;;;;;14.25;4.82;;;;;;;;;;4958746;28;20038;-80
2023/03/12 05:58:43;;;;;;;10.27;4.30;;;;;;;;;;4972718;28;20233;-79
2023/03/12 06:01:15;;;;;;;9.38;3.05;;;;;;;;;;4989862;28;20707;-81
2023/03/12 06:03:41;;;;;;;9.10;3.42;;;;;;;;;;4991590;28;20065;-82
2023/03/12 06:06:07;;;;;;;12.73;4.10;;;;;;;;;;4978525;28;20516;-81
2023/03/12 06:08:32;;;;;;;5.78;2.97;;;;;;;;;;4988568;28;20056;-81
2023/03/12 06:10:58;;;;;;;7.35;3.20;;;;;;;;;;4993772;28;20026;-81
2023/03/12 06:13:24;;;;;;;12.38;3.50;;;;;;;;;;4959599;28;20027;-81
2023/03/12 06:15:49;;;;;;;6.03;3.50;;;;;;;;;;4977629;28;20112;-81
2023/03/12 06:18:14;;;;;;;6.90;3.28;;;;;;;;;;4971045;28;20054;-81
2023/03/12 06:20:40;;;;;;;4.30;2.97;;;;;;;;;;4975587;28;20392;-81
2023/03/12 06:23:06;;;;;;;4.93;3.00;;;;;;;;;;4972406;28;20035;-81
2023/03/12 06:25:31;;;;;;;3.55;2.60;;;;;;;;;;4962947;28;20039;-81
2023/03/12 06:27:57;;;;;;;6.35;3.28;;;;;;;;;;4966937;28;20085;-81
2023/03/12 06:30:22;;;;;;;5.60;2.72;;;;;;;;;;4989770;28;20106;-81
2023/03/12 06:32:47;;;;;;;8.10;2.88;;;;;;;;;;4976223;28;20030;-82
2023/03/12 06:35:13;;;;;;;6.97;3.60;;;;;;;;;;4978489;28;20473;-81
2023/03/12 06:37:38;;;;;;;5.65;4.13;;;;;;;;;;4963505;28;20033;-81
2023/03/12 06:40:06;;;;;;;8.93;4.72;;;;;;;;;;4992642;28;20106;-80
2023/03/12 06:42:32;;;;;;;7.00;2.67;;;;;;;;;;5001332;28;20296;-81
2023/03/12 06:44:57;;;;;;;3.40;2.90;;;;;;;;;;4963521;28;20037;-81
2023/03/12 06:47:22;;;;;;;6.10;3.25;;;;;;;;;;4980667;28;20038;-81
2023/03/12 06:49:48;;;;;;;4.70;3.33;;;;;;;;;;4973169;28;20112;-81
2023/03/12 06:52:13;;;;;;;6.13;3.60;;;;;;;;;;4980858;28;20030;-80
2023/03/12 06:54:39;;;;;;;4.47;3.08;;;;;;;;;;4977842;28;20030;-82
2023/03/12 06:57:04;;;;;;;7.82;3.28;;;;;;;;;;4962491;28;20078;-81
2023/03/12 06:59:29;;;;;;;8.65;3.10;;;;;;;;;;4970887;28;20026;-82
2023/03/12 07:01:55;;;;;;;5.18;2.75;;;;;;;;;;4969150;28;20026;-82
2023/03/12 07:04:21;;;;;;;6.20;3.40;;;;;;;;;;4975696;28;20031;-81
2023/03/12 07:06:50;;;;;;;3.70;2.72;;;;;;;;;;4966077;28;20131;-81
2023/03/12 07:09:17;;;;;;;19.13;2.60;;;;;;;;;;4981155;28;20105;-81
2023/03/12 07:11:43;;;;;;;6.05;3.00;;;;;;;;;;4986535;28;20031;-79
2023/03/12 07:14:08;;;;;;;6.20;3.70;;;;;;;;;;4968966;28;20359;-79
2023/03/12 07:16:34;;;;;;;4.15;2.85;;;;;;;;;;4980189;28;20034;-79
2023/03/12 07:18:59;;;;;;;7.10;2.75;;;;;;;;;;4964824;28;20115;-80
2023/03/12 07:21:24;;;;;;;9.70;3.85;;;;;;;;;;4996211;28;20034;-81
2023/03/12 07:23:51;;;;;;;8.35;3.50;;;;;;;;;;4977861;28;20034;-81
2023/03/12 07:26:17;;;;;;;4.63;3.30;;;;;;;;;;4980931;28;20178;-81
2023/03/12 07:28:42;;;;;;;7.60;3.95;;;;;;;;;;5004342;28;20085;-79
2023/03/12 07:31:07;;;;;;;5.55;3.35;;;;;;;;;;4977871;28;20023;-80
2023/03/12 07:33:33;;;;;;;8.30;3.40;;;;;;;;;;4974979;28;20031;-80
2023/03/12 07:35:59;;;;;;;7.05;3.58;;;;;;;;;;4976939;28;20030;-80
2023/03/12 07:38:24;;;;;;;3.75;2.97;;;;;;;;;;4986991;28;20488;-80
2023/03/12 07:40:51;;;;;;;5.68;3.40;;;;;;;;;;4988581;28;20030;-80
2023/03/12 07:43:16;;;;;;;8.57;3.97;;;;;;;;;;4978125;28;20018;-81
2023/03/12 07:45:41;;;;;;;6.22;2.92;;;;;;;;;;4984119;28;20035;-81
2023/03/12 07:48:07;;;;;;;6.80;3.72;;;;;;;;;;4978195;28;20030;-82
2023/03/12 07:50:33;;;;;;;4.60;2.95;;;;;;;;;;4971881;28;20516;-81
2023/03/12 07:52:58;;;;;;;10.32;2.88;;;;;;;;;;4969075;28;20057;-81
2023/03/12 07:55:23;;;;;;;4.70;2.88;;;;;;;;;;4977931;28;20457;-81
2023/03/12 07:57:49;;;;;;;6.15;3.10;;;;;;;;;;4976709;28;20543;-81
2023/03/12 08:00:15;;;;;;;7.55;2.88;;;;;;;;;;4964720;28;20054;-81
2023/03/12 08:02:41;;;;;;;3.47;2.72;;;;;;;;;;4960089;28;20046;-81
2023/03/12 08:05:07;;;;;;;7.05;3.83;;;;;;;;;;4985793;28;20123;-82
2023/03/12 08:07:34;;;;;;;4.72;2.95;;;;;;;;;;4968544;28;20026;-81
2023/03/12 08:10:00;;;;;;;6.30;3.38;;;;;;;;;;4988599;28;20026;-81
2023/03/12 08:12:27;;;;;;;10.57;4.75;;;;;;;;;;4970376;28;20039;-81
2023/03/12 08:14:52;;;;;;;10.45;4.95;;;;;;;;;;4978235;28;20392;-81
2023/03/12 08:17:17;;;;;;;12.50;4.57;;;;;;;;;;4977058;28;20031;-81
2023/03/12 08:19:43;;;;;;;14.90;5.30;;;;;;;;;;4985191;28;20073;-81
2023/03/12 08:22:08;;;;;;;8.95;3.78;;;;;;;;;;4959447;28;20563;-81
2023/03/12 08:24:34;;;;;;;3.08;2.70;;;;;;;;;;4981713;28;20041;-81
2023/03/12 08:26:59;;;;;;;6.28;2.80;;;;;;;;;;4958842;28;20023;-81
2023/03/12 08:29:25;;;;;;;5.25;3.15;;;;;;;;;;4976694;28;20084;-81
2023/03/12 08:31:51;;;;;;;3.15;2.70;;;;;;;;;;4960046;28;20125;-79
2023/03/12 08:34:16;;;;;;;3.20;2.35;;;;;;;;;;4976121;28;20026;-80
2023/03/12 08:36:41;;;;;;;3.78;2.83;;;;;;;;;;4958262;28;20030;-79
2023/03/12 08:39:07;;;;;;;5.47;2.97;;;;;;;;;;4984133;28;20045;-80
2023/03/12 08:41:32;;;;;;;4.82;2.90;;;;;;;;;;4991040;28;20036;-81
2023/03/12 08:43:57;;;;;;;6.60;2.95;;;;;;;;;;4982555;28;20052;-80
2023/03/12 08:46:23;;;;;;;7.15;3.45;;;;;;;;;;4964808;28;20019;-80
2023/03/12 08:48:48;;;;;;;6.32;2.65;;;;;;;;;;4975111;28;20031;-80
2023/03/12 08:51:13;;;;;;;3.97;2.50;;;;;;;;;;4986090;28;20023;-80
2023/03/12 08:53:40;;;;;;;7.60;2.50;;;;;;;;;;4972689;28;20034;-80
2023/03/12 08:56:06;;;;;;;11.05;3.80;;;;;;;;;;4973408;28;20026;-80
2023/03/12 08:58:31;;;;;;;4.38;3.50;;;;;;;;;;4970993;28;20034;-80
2023/03/12 09:00:57;;;;;;;6.47;3.70;;;;;;;;;;4978536;28;20038;-81
2023/03/12 09:03:23;;;;;;;7.35;2.92;;;;;;;;;;4962099;28;20041;-81
2023/03/12 09:05:49;;;;;;;12.10;3.38;;;;;;;;;;4978365;28;20035;-80
2023/03/12 09:08:15;;;;;;;5.18;3.13;;;;;;;;;;4965711;28;20033;-82
2023/03/12 09:10:49;;;;;;;5.60;3.95;;;;;;;;;;4979460;28;20121;-80
2023/03/12 09:13:14;;;;;;;3.88;3.10;;;;;;;;;;4963122;28;20026;-81
2023/03/12 09:15:40;;;;;;;6.10;3.03;;;;;;;;;;4969100;28;20081;-81
2023/03/12 09:18:05;;;;;;;4.85;3.45;;;;;;;;;;4982237;28;20019;-81
2023/03/12 09:20:31;;;;;;;10.48;3.65;;;;;;;;;;4993373;28;20034;-81
2023/03/12 09:22:56;;;;;;;3.78;2.95;;;;;;;;;;4991467;28;20612;-81
2023/03/12 09:25:22;;;;;;;7.00;3.65;;;;;;;;;;4986204;28;20041;-80
2023/03/12 09:27:47;;;;;;;5.57;3.50;;;;;;;;;;4978298;28;20058;-80
2023/03/12 09:30:16;;;;;;;8.05;4.10;;;;;;;;;;4987802;28;20066;-80
2023/03/12 09:32:44;;;;;;;5.35;2.60;;;;;;;;;;4990043;28;20553;-81
2023/03/12 09:35:09;;;;;;;5.28;2.97;;;;;;;;;;4970111;28;20033;-81
2023/03/12 09:37:34;;;;;;;4.65;3.15;;;;;;;;;;4992717;28;20094;-80
2023/03/12 09:40:06;;;;;;;7.45;3.58;;;;;;;;;;4972523;28;20030;-80
2023/03/12 09:42:45;;;;;;;6.93;4.13;;;;;;;;;;4976559;28;20417;-80
2023/03/12 09:45:19;;;;;;;7.15;4.10;;;;;;;;;;4979341;28;20038;-80
2023/03/12 09:47:56;;;;;;;4.32;3.38;;;;;;;;;;4967049;28;20081;-80
2023/03/12 09:50:27;;;;;;;6.55;3.45;;;;;;;;;;4974108;28;20051;-81
2023/03/12 09:53:47;;;;;;;8.10;4.13;;;;;;;;;;4967177;28;20034;-81
2023/03/12 09:56:17;;;;;;;5.18;3.30;;;;;;;;;;4923627;29;20028;-81
2023/03/12 09:58:46;;;;;;;5.43;3.38;;;;;;;;;;4980285;28;20050;-81
2023/03/12 10:01:48;;;;;;;9.70;3.47;;;;;;;;;;4977856;28;20113;-81
2023/03/12 10:04:40;;;;;;;8.00;3.90;;;;;;;;;;4963291;28;20485;-81
2023/03/12 10:07:11;;;;;;;;;;;;;;;;;;4969368;28;20019;-81
2023/03/12 10:10:08;;;;;;;4.70;3.15;;;;;;;;;;4971359;28;20376;-81
2023/03/12 10:12:42;;;;;;;4.88;3.70;;;;;;;;;;4977962;28;20027;-81
2023/03/12 10:15:19;;;;;;;9.73;3.65;;;;;;;;;;4987384;28;20027;-81
2023/03/12 10:18:10;;;;;;;6.25;3.40;;;;;;;;;;4987973;28;20030;-81
2023/03/12 10:21:03;;;;;;;7.35;3.92;;;;;;;;;;4984096;28;20031;-81
2023/03/12 10:24:01;;;;;;;5.60;3.05;;;;;;;;;;4980394;28;20034;-83
2023/03/12 10:26:38;;;;;;;5.53;3.72;;;;;;;;;;4954220;28;20035;-84
2023/03/12 10:29:21;;;;;;;8.80;4.38;;;;;;;;;;4966678;28;20019;-85
2023/03/12 10:31:46;;;;;;;5.95;3.92;;;;;;;;;;4945862;28;20106;-83
2023/03/12 10:34:20;;;;;;;4.95;3.08;;;;;;;;;;4963016;28;20219;-82
2023/03/12 10:36:46;;;;;;;6.70;3.42;;;;;;;;;;4945867;28;21216;-82
2023/03/12 10:39:15;;;;;;;9.15;3.55;;;;;;;;;;4945067;28;20034;-83
2023/03/12 10:41:43;;;;;;;5.68;3.47;;;;;;;;;;4962410;28;20058;-81
2023/03/12 10:44:17;;;;;;;4.80;3.42;;;;;;;;;;4961080;28;20109;-81
2023/03/12 10:47:00;;;;;;;6.82;3.67;;;;;;;;;;4962970;28;20091;-81
2023/03/12 10:49:41;;;;;;;5.97;2.88;;;;;;;;;;4945382;28;20031;-85
2023/03/12 10:52:17;;;;;;;4.85;3.60;;;;;;;;;;4965976;28;20029;-83
2023/03/12 10:54:46;;;;;;;5.68;2.72;;;;;;;;;;4966552;28;20038;-83
2023/03/12 10:57:14;;;;;;;2.25;1.80;;;;;;;;;;4957878;28;20034;-85
2023/03/12 10:59:44;;;;;;;1.60;1.50;;;;;;;;;;4982518;28;20039;-84
2023/03/12 11:02:33;;;;;;;2.42;1.70;;;;;;;;;;4980980;28;20019;-83
2023/03/12 11:05:01;;;;;;;3.38;1.70;;;;;;;;;;4979620;28;20039;-83
2023/03/12 11:07:32;;;;;;;1.33;1.23;;;;;;;;;;4979071;28;20012;-83
2023/03/12 11:10:06;;;;;;;3.50;2.17;;;;;;;;;;4978944;28;20103;-84
2023/03/12 11:12:37;;;;;;;3.47;1.30;;;;;;;;;;5008612;28;20023;-84
2023/03/12 11:15:21;;;;;;;2.25;1.50;;;;;;;;;;5017914;28;20038;-83
2023/03/12 11:17:47;;;;;;;1.30;1.20;;;;;;;;;;4999975;28;20022;-82
2023/03/12 11:20:29;;;;;;;1.85;1.17;;;;;;;;;;4989312;28;20025;-84
2023/03/12 11:22:55;;;;;;;1.02;0.90;;;;;;;;;;4980373;28;20086;-84
2023/03/12 11:25:26;;;;;;;1.92;1.38;;;;;;;;;;4977371;28;20058;-82
2023/03/12 11:27:59;;;;;;;1.02;0.90;;;;;;;;;;4965244;28;20035;-84
2023/03/12 11:30:43;;;;;;;1.10;0.80;;;;;;;;;;4995937;28;20026;-83
2023/03/12 11:33:10;;;;;;;0.85;0.85;;;;;;;;;;4961317;28;20115;-83
2023/03/12 11:35:44;;;;;;;2.10;1.30;;;;;;;;;;4967115;28;20038;-83
2023/03/12 11:38:20;;;;;;;2.30;1.05;;;;;;;;;;4965322;28;20035;-83
2023/03/12 11:40:48;;;;;;;2.30;1.10;;;;;;;;;;4957985;28;20031;-82
2023/03/12 11:43:23;;;;;;;0.82;0.80;;;;;;;;;;4966726;28;20054;-81
2023/03/12 11:46:11;;;;;;;2.40;1.13;;;;;;;;;;4964217;28;20485;-81
2023/03/12 11:48:42;;;;;;;4.05;1.20;;;;;;;;;;4960554;28;20126;-82
2023/03/12 11:51:17;;;;;;;0.82;0.82;;;;;;;;;;4965984;28;20054;-84
2023/03/12 11:54:04;;;;;;;0.80;0.70;;;;;;;;;;4962935;28;20070;-83
2023/03/12 11:56:35;;;;;;;1.38;0.70;;;;;;;;;;4965002;28;20039;-82
2023/03/12 11:59:18;;;;;;;0.70;0.70;;;;;;;;;;4950129;28;20057;-82
2023/03/12 12:01:43;;;;;;;1.10;0.75;;;;;;;;;;4945731;28;20777;-83
2023/03/12 12:04:30;;;;;;;2.35;0.75;;;;;;;;;;4954874;28;20058;-82
2023/03/12 12:07:35;;;;;;;1.25;0.85;;;;;;;;;;4962446;28;20023;-82
2023/03/12 12:11:04;;;;;;;1.33;1.00;;;;;;;;;;4984424;28;20491;-83
2023/03/12 12:28:00;;;;;;;0.47;0.47;;;;;;;;;;4911589;29;20059;-84
2023/03/12 12:31:08;;;;;;;2.17;0.95;;;;;;;;;;4908367;29;20041;-83
2023/03/12 12:45:24;;;;;;;5.10;1.10;;;;;;;;;;4842344;29;20098;-83
2023/03/12 12:52:12;;;;;;;4.60;1.45;;;;;;;;;;4748884;30;20582;-84
2023/03/12 13:05:43;;;;;;;1.08;0.73;;;;;;;;;;4852880;29;20101;-83
2023/03/12 13:15:29;;;;;;;2.15;0.82;;;;;;;;;;4824875;29;20503;-83
2023/03/12 13:17:57;;;;;;;1.85;1.00;;;;;;;;;;4947772;28;20027;-82
2023/03/12 13:20:45;;;;;;;3.22;1.33;;;;;;;;;;4980482;28;20131;-83
2023/03/12 13:23:25;;;;;;;4.47;1.23;;;;;;;;;;4953281;28;20042;-81
2023/03/12 13:26:00;;;;;;;3.58;1.23;;;;;;;;;;4953821;28;20035;-81
2023/03/12 13:28:36;;;;;;;2.45;1.10;;;;;;;;;;4970137;28;20195;-81
2023/03/12 13:31:36;;;;;;;2.75;1.40;;;;;;;;;;4971341;28;20089;-82
2023/03/12 13:35:05;;;;;;;2.92;1.15;;;;;;;;;;4947555;28;20034;-83
2023/03/12 13:38:16;;;;;;;2.05;1.40;;;;;;;;;;4919493;29;20129;-83
2023/03/12 13:45:31;;;;;;;1.27;0.63;;;;;;;;;;4935909;28;20065;-84
2023/03/12 13:48:24;;;;;;;4.85;1.30;;;;;;;;;;4873383;29;20476;-82
2023/03/12 13:51:35;;;;;;;6.68;1.52;;;;;;;;;;4872428;29;20049;-81
2023/03/12 13:54:07;;;;;;;3.20;1.20;;;;;;;;;;4859733;29;20127;-82
2023/03/12 13:57:17;;;;;;;4.43;1.00;;;;;;;;;;4826335;29;20042;-82
2023/03/12 14:23:37;;;;;;;4.28;2.25;;;;;;;;;;4931780;29;20145;-80
2023/03/12 14:26:07;;;;;;;9.07;2.50;;;;;;;;;;4933516;29;20063;-78
2023/03/12 14:28:41;;;;;;;9.25;3.33;;;;;;;;;;4951969;28;20525;-79
2023/03/12 14:31:13;;;;;;;12.95;3.38;;;;;;;;;;4974257;28;20466;-80
2023/03/12 14:33:49;;;;;;;;;;;;;;;;;;4968950;28;20102;-80
2023/03/12 14:37:04;;;;;;;4.43;1.83;;;;;;;;;;4971270;28;19914;-79
2023/03/12 14:39:44;;;;;;;12.25;2.40;;;;;;;;;;4938002;28;20030;-78
2023/03/12 14:42:17;;;;;;;7.00;2.95;;;;;;;;;;4949849;28;20033;-78
2023/03/12 14:45:06;;;;;;;8.68;2.42;;;;;;;;;;4940593;29;20031;-78
2023/03/12 14:47:40;;;;;;;4.95;2.38;;;;;;;;;;4967520;28;20027;-79
2023/03/12 14:50:43;;;;;;;4.75;1.90;;;;;;;;;;4966108;28;20540;-80
2023/03/12 14:53:16;;;;;;;10.07;2.85;;;;;;;;;;4957704;28;20134;-79
2023/03/12 14:55:41;;;;;;;4.18;2.83;;;;;;;;;;4975553;28;20023;-80
2023/03/12 14:58:19;;;;;;;8.52;2.53;;;;;;;;;;4954995;28;20027;-79
2023/03/12 15:00:56;;;;;;;9.20;3.03;;;;;;;;;;4949598;28;20031;-80
2023/03/12 15:03:22;;;;;;;5.10;3.13;;;;;;;;;;4974236;28;20019;-79
2023/03/12 15:05:49;;;;;;;12.20;4.68;;;;;;;;;;4976664;28;20038;-81
2023/03/12 15:08:16;;;;;;;12.18;4.20;;;;;;;;;;4976061;28;20531;-81
2023/03/12 15:10:48;;;;;;;5.47;2.25;;;;;;;;;;4964220;28;20088;-80
2023/03/12 15:13:15;;;;;;;10.20;3.38;;;;;;;;;;4963068;28;20548;-82
2023/03/12 15:15:49;;;;;;;9.13;3.33;;;;;;;;;;4975788;28;20460;-81
2023/03/12 15:18:19;;;;;;;4.47;2.22;;;;;;;;;;4995189;28;20018;-83
2023/03/12 15:20:47;;;;;;;6.90;3.03;;;;;;;;;;4972998;28;20081;-82
2023/03/12 15:23:17;;;;;;;2.67;1.25;;;;;;;;;;4976189;28;20019;-82
2023/03/12 15:25:43;;;;;;;5.20;1.40;;;;;;;;;;4977181;28;20027;-80
2023/03/12 15:28:09;;;;;;;2.88;1.33;;;;;;;;;;4959161;28;20022;-82
2023/03/12 15:30:35;;;;;;;7.63;2.30;;;;;;;;;;4976337;28;20401;-81
2023/03/12 15:33:03;;;;;;;8.98;2.42;;;;;;;;;;4967732;28;20110;-80
2023/03/12 15:35:29;;;;;;;5.35;1.70;;;;;;;;;;4974987;28;20369;-80
2023/03/12 15:37:54;;;;;;;7.78;2.22;;;;;;;;;;4957422;28;20034;-82
2023/03/12 15:40:23;;;;;;;6.60;2.17;;;;;;;;;;4963138;28;20026;-81
2023/03/12 15:42:49;;;;;;;2.58;1.60;;;;;;;;;;4968698;28;20042;-81
2023/03/12 15:45:22;;;;;;;6.53;1.88;;;;;;;;;;4981328;28;20408;-80
2023/03/12 15:47:49;;;;;;;4.45;1.17;;;;;;;;;;4977081;28;20023;-79
2023/03/12 15:50:26;;;;;;;2.83;1.17;;;;;;;;;;4987985;28;20023;-80
2023/03/12 15:53:24;;;;;;;4.32;1.45;;;;;;;;;;4962735;28;20054;-80
2023/03/12 15:56:01;;;;;;;5.20;1.50;;;;;;;;;;4979649;28;20105;-79
2023/03/12 15:58:30;;;;;;;5.68;1.67;;;;;;;;;;4976320;28;20514;-81
2023/03/12 16:01:13;;;;;;;3.75;1.02;;;;;;;;;;4961702;28;20027;-81
2023/03/12 16:03:41;;;;;;;6.25;1.17;;;;;;;;;;4962968;28;20049;-81
2023/03/12 16:06:15;;;;;;;2.35;1.30;;;;;;;;;;4962758;28;20109;-80
2023/03/12 16:09:23;;;;;;;3.08;1.20;;;;;;;;;;4967709;28;20037;-81
2023/03/12 16:11:48;;;;;;;6.32;1.20;;;;;;;;;;4954172;28;20042;-82
2023/03/12 16:14:14;;;;;;;3.95;1.10;;;;;;;;;;4960575;28;20434;-80
2023/03/12 16:16:39;;;;;;;6.65;1.45;;;;;;;;;;4977545;28;20027;-81
2023/03/12 16:19:15;;;;;;;1.85;1.65;;;;;;;;;;4980857;28;20034;-80